createdAt,value
2022-12-19T00:00:06.765Z,16.02
2022-12-19T00:03:13.975Z,17.20
2022-12-19T00:06:17.721Z,16.43
2022-12-19T00:09:21.726Z,16.13
2022-12-19T00:12:24.251Z,15.47
2022-12-19T00:15:26.810Z,15.70
2022-12-19T00:18:29.560Z,14.83
2022-12-19T00:21:34.950Z,15.77
2022-12-19T00:24:39.308Z,15.60
2022-12-19T00:30:44.256Z,15.10
2022-12-19T00:33:47.416Z,16.33
2022-12-19T00:36:50.119Z,14.77
2022-12-19T00:39:54.048Z,15.47
2022-12-19T00:46:03.573Z,15.20
2022-12-19T00:49:07.231Z,15.43
2022-12-19T00:52:09.907Z,16.27
2022-12-19T00:55:18.775Z,14.83
2022-12-19T00:58:22.149Z,14.73
2022-12-19T01:01:26.951Z,14.67
2022-12-19T01:04:31.269Z,16.17
2022-12-19T01:07:35.114Z,15.87
2022-12-19T01:10:39.333Z,17.07
2022-12-19T01:13:41.102Z,16.50
2022-12-19T01:16:44.697Z,17.37
2022-12-19T01:19:47.271Z,16.50
2022-12-19T01:22:49.872Z,16.93
2022-12-19T01:25:55.430Z,16.27
2022-12-19T01:28:58.056Z,16.00
2022-12-19T01:32:00.727Z,16.83
2022-12-19T01:35:03.370Z,16.20
2022-12-19T01:38:08.553Z,17.00
2022-12-19T01:41:12.736Z,16.03
2022-12-19T01:47:17.854Z,15.73
2022-12-19T01:50:23.205Z,16.93
2022-12-19T01:53:29.243Z,17.10
2022-12-19T01:56:36.079Z,17.30
2022-12-19T01:59:41.533Z,18.07
2022-12-19T02:02:46.509Z,18.43
2022-12-19T02:05:49.321Z,16.00
2022-12-19T02:08:52.470Z,17.80
2022-12-19T02:11:56.421Z,17.48
2022-12-19T02:15:02.535Z,18.93
2022-12-19T02:18:12.546Z,18.60
2022-12-19T02:21:34.725Z,18.97
2022-12-19T02:25:01.593Z,18.50
2022-12-19T02:28:17.422Z,18.57
2022-12-19T02:31:26.849Z,19.17
2022-12-19T02:34:32.879Z,18.97
2022-12-19T02:37:38.539Z,17.83
2022-12-19T02:40:43.545Z,20.13
2022-12-19T02:43:49.067Z,18.73
2022-12-19T02:46:57.914Z,18.50
2022-12-19T02:50:00.862Z,17.97
2022-12-19T02:53:03.407Z,16.98
2022-12-19T02:56:23.202Z,16.43
2022-12-19T02:59:36.859Z,18.80
2022-12-19T03:03:00.413Z,19.38
2022-12-19T03:09:12.694Z,17.95
2022-12-19T03:12:19.791Z,18.43
2022-12-19T03:15:23.192Z,19.43
2022-12-19T03:18:27.762Z,18.50
2022-12-19T03:21:33.949Z,18.93
2022-12-19T03:24:36.599Z,18.03
2022-12-19T03:27:40.447Z,17.97
2022-12-19T03:30:44.297Z,18.07
2022-12-19T03:36:55.018Z,16.55
2022-12-19T03:40:03.956Z,17.00
2022-12-19T03:43:10.397Z,17.57
2022-12-19T03:46:16.839Z,18.27
2022-12-19T03:49:20.915Z,18.27
2022-12-19T03:52:27.697Z,18.23
2022-12-19T03:55:34.182Z,18.13
2022-12-19T03:58:39.990Z,17.83
2022-12-19T04:01:43.373Z,17.93
2022-12-19T04:04:50.028Z,17.27
2022-12-19T04:07:54.893Z,15.67
2022-12-19T04:11:02.025Z,16.30
2022-12-19T04:14:07.924Z,16.27
2022-12-19T04:17:14.664Z,17.63
2022-12-19T04:20:20.580Z,17.90
2022-12-19T04:23:26.125Z,15.80
2022-12-19T04:26:29.342Z,17.17
2022-12-19T04:29:33.523Z,16.50
2022-12-19T04:32:36.910Z,16.63
2022-12-19T04:35:40.892Z,15.60
2022-12-19T04:38:43.521Z,16.20
2022-12-19T04:41:46.201Z,16.70
2022-12-19T04:44:48.845Z,16.17
2022-12-19T04:47:51.426Z,16.87
2022-12-19T04:50:56.499Z,15.23
2022-12-19T04:53:59.196Z,16.20
2022-12-19T04:57:01.830Z,15.47
2022-12-19T05:00:07.068Z,15.50
2022-12-19T05:03:09.713Z,15.90
2022-12-19T05:06:15.153Z,16.27
2022-12-19T05:09:18.014Z,16.17
2022-12-19T05:12:20.745Z,15.03
2022-12-19T05:15:23.490Z,15.33
2022-12-19T05:18:26.572Z,16.50
2022-12-19T05:21:30.438Z,15.60
2022-12-19T05:27:36.192Z,15.80
2022-12-19T05:30:38.769Z,17.23
2022-12-19T05:33:42.190Z,16.97
2022-12-19T05:36:46.634Z,16.67
2022-12-19T05:39:49.228Z,16.47
2022-12-19T05:42:51.869Z,17.83
2022-12-19T05:45:55.730Z,15.17
2022-12-19T05:52:03.767Z,15.68
2022-12-19T05:55:12.117Z,17.60
2022-12-19T05:58:14.811Z,16.10
2022-12-19T06:01:19.640Z,18.73
2022-12-19T06:04:22.305Z,17.97
2022-12-19T06:07:26.626Z,16.80
2022-12-19T06:10:29.182Z,16.17
2022-12-19T06:13:32.334Z,15.93
2022-12-19T06:16:34.950Z,15.75
2022-12-19T06:19:37.600Z,16.43
2022-12-19T06:22:41.815Z,17.63
2022-12-19T06:25:44.318Z,17.27
2022-12-19T06:28:47.103Z,16.77
2022-12-19T06:31:49.925Z,15.17
2022-12-19T06:35:09.450Z,15.67
2022-12-19T06:38:13.664Z,16.37
2022-12-19T06:41:34.023Z,16.93
2022-12-19T06:44:36.922Z,17.20
2022-12-19T06:47:39.521Z,16.53
2022-12-19T06:50:42.465Z,16.43
2022-12-19T06:53:46.460Z,17.33
2022-12-19T06:56:49.328Z,16.10
2022-12-19T06:59:51.978Z,16.93
2022-12-19T07:02:54.866Z,15.20
2022-12-19T07:05:57.585Z,16.42
2022-12-19T07:09:01.469Z,16.57
2022-12-19T07:15:09.216Z,15.40
2022-12-19T07:18:12.049Z,17.70
2022-12-19T07:21:14.726Z,16.33
2022-12-19T07:24:18.826Z,16.57
2022-12-19T07:27:29.738Z,17.20
2022-12-19T07:30:36.503Z,16.83
2022-12-19T07:33:39.151Z,16.50
2022-12-19T07:36:41.737Z,16.63
2022-12-19T07:39:46.307Z,16.67
2022-12-19T07:42:49.168Z,16.73
2022-12-19T07:45:55.042Z,17.67
2022-12-19T07:49:01.262Z,15.90
2022-12-19T07:52:04.620Z,16.53
2022-12-19T07:55:09.991Z,16.20
2022-12-19T07:58:12.557Z,17.80
2022-12-19T08:01:15.203Z,15.83
2022-12-19T08:04:17.833Z,17.33
2022-12-19T08:07:20.438Z,17.87
2022-12-19T08:10:24.538Z,17.97
2022-12-19T08:13:30.066Z,17.70
2022-12-19T08:16:55.750Z,17.40
2022-12-19T08:19:59.873Z,16.60
2022-12-19T08:23:02.426Z,26.37
2022-12-19T08:26:08.927Z,23.17
2022-12-19T08:29:11.509Z,20.90
2022-12-19T08:32:20.472Z,18.37
2022-12-19T08:35:23.705Z,18.53
2022-12-19T08:38:26.732Z,17.63
2022-12-19T08:41:30.726Z,15.77
2022-12-19T08:44:34.053Z,17.70
2022-12-19T08:47:36.717Z,18.33
2022-12-19T08:50:39.360Z,15.57
2022-12-19T08:53:43.061Z,17.33
2022-12-19T08:56:47.316Z,17.08
2022-12-19T08:59:50.094Z,16.30
2022-12-19T09:06:07.035Z,15.37
2022-12-19T09:09:13.121Z,18.47
2022-12-19T09:12:17.623Z,18.67
2022-12-19T09:15:20.395Z,17.20
2022-12-19T09:18:24.195Z,17.63
2022-12-19T09:24:31.613Z,16.23
2022-12-19T09:28:01.190Z,16.43
2022-12-19T09:30:59.202Z,19.60
2022-12-19T09:34:02.422Z,16.92
2022-12-19T09:37:05.116Z,16.88
2022-12-19T09:40:11.030Z,16.33
2022-12-19T09:43:23.726Z,16.33
2022-12-19T09:46:32.626Z,16.63
2022-12-19T09:49:39.939Z,17.93
2022-12-19T09:52:51.052Z,17.23
2022-12-19T09:55:54.213Z,17.97
2022-12-19T09:59:02.664Z,17.38
2022-12-19T10:02:19.146Z,16.83
2022-12-19T10:05:52.333Z,16.90
2022-12-19T10:10:03.910Z,18.23
2022-12-19T10:12:39.946Z,16.87
2022-12-19T10:15:56.152Z,17.77
2022-12-19T10:19:04.932Z,17.57
2022-12-19T10:22:18.699Z,17.57
2022-12-19T10:25:38.602Z,16.67
2022-12-19T10:28:52.931Z,17.07
2022-12-19T10:32:01.602Z,18.00
2022-12-19T10:35:13.945Z,18.37
2022-12-19T10:38:23.623Z,16.03
2022-12-19T10:41:27.974Z,17.73
2022-12-19T10:44:31.706Z,16.47
2022-12-19T10:50:38.211Z,15.35
2022-12-19T10:53:40.893Z,16.03
2022-12-19T10:56:47.926Z,18.77
2022-12-19T10:59:56.541Z,17.23
2022-12-19T11:03:12.895Z,17.00
2022-12-19T11:06:43.442Z,16.27
2022-12-19T11:09:54.723Z,16.40
2022-12-19T11:18:26.837Z,18.03
2022-12-19T11:22:07.370Z,32.87
2022-12-19T11:29:25.302Z,26.00
2022-12-19T11:29:25.646Z,19.27
2022-12-19T11:30:39.631Z,21.57
2022-12-19T11:34:29.765Z,18.77
2022-12-19T11:37:39.075Z,18.13
2022-12-19T11:40:49.548Z,18.10
2022-12-19T11:43:55.164Z,16.37
2022-12-19T11:47:03.773Z,16.50
2022-12-19T11:50:13.027Z,16.70
2022-12-19T11:53:22.221Z,17.40
2022-12-19T11:56:27.774Z,16.97
2022-12-19T11:59:32.843Z,17.47
2022-12-19T12:02:50.677Z,16.77
2022-12-19T12:05:55.330Z,15.97
2022-12-19T12:11:13.041Z,16.30
2022-12-19T12:20:33.143Z,18.87
2022-12-19T12:28:52.489Z,18.23
2022-12-19T12:31:01.414Z,18.83
2022-12-19T12:31:38.890Z,16.77
2022-12-19T12:32:03.363Z,17.07
2022-12-19T12:32:05.580Z,16.20
2022-12-19T12:35:47.066Z,15.73
2022-12-19T12:40:36.278Z,16.93
2022-12-19T12:44:01.741Z,17.00
2022-12-19T12:47:11.375Z,18.40
2022-12-19T12:50:17.211Z,17.07
2022-12-19T12:53:22.947Z,17.10
2022-12-19T12:56:25.891Z,17.63
2022-12-19T12:59:31.337Z,19.80
2022-12-19T13:02:34.240Z,18.97
2022-12-19T13:05:53.707Z,17.37
2022-12-19T13:09:03.865Z,17.60
2022-12-19T13:12:35.135Z,17.80
2022-12-19T13:15:41.202Z,18.03
2022-12-19T13:19:04.262Z,17.57
2022-12-19T13:22:38.568Z,15.57
2022-12-19T13:25:50.526Z,16.95
2022-12-19T13:28:53.258Z,16.60
2022-12-19T13:32:11.781Z,17.30
2022-12-19T13:36:44.690Z,18.10
2022-12-19T13:39:54.294Z,16.47
2022-12-19T13:42:41.789Z,17.43
2022-12-19T13:45:50.481Z,17.33
2022-12-19T13:48:57.748Z,18.00
2022-12-19T13:52:00.899Z,17.13
2022-12-19T13:55:03.620Z,17.52
2022-12-19T13:58:06.428Z,17.87
2022-12-19T14:01:21.495Z,18.33
2022-12-19T14:04:30.159Z,18.43
2022-12-19T14:07:37.397Z,17.73
2022-12-19T14:11:34.826Z,14.37
2022-12-19T14:14:33.358Z,16.23
2022-12-19T14:17:36.081Z,12.60
2022-12-19T14:22:09.531Z,14.13
2022-12-19T14:24:15.088Z,15.18
2022-12-19T14:28:23.736Z,14.97
2022-12-19T14:30:42.690Z,17.27
2022-12-19T14:34:10.964Z,18.33
2022-12-19T14:38:54.236Z,17.10
2022-12-19T14:41:07.823Z,17.53
2022-12-19T14:54:03.816Z,15.37
2022-12-19T14:54:17.043Z,18.23
2022-12-19T14:58:53.971Z,20.10
2022-12-19T15:01:23.320Z,17.30
2022-12-19T15:04:50.875Z,14.77
2022-12-19T15:07:53.081Z,11.50
2022-12-19T15:11:40.104Z,11.43
2022-12-19T15:14:51.619Z,9.17
2022-12-19T15:17:58.324Z,8.37
2022-12-19T15:21:02.668Z,8.00
2022-12-19T15:24:05.703Z,7.67
2022-12-19T15:27:13.749Z,8.13
2022-12-19T15:30:18.684Z,8.97
2022-12-19T15:33:21.442Z,11.40
2022-12-19T15:36:24.177Z,7.63
2022-12-19T15:39:29.781Z,6.67
2022-12-19T15:42:34.674Z,6.93
2022-12-19T15:45:37.301Z,7.30
2022-12-19T15:48:41.655Z,7.47
2022-12-19T15:51:44.498Z,7.27
2022-12-19T15:54:49.143Z,7.90
2022-12-19T15:57:56.603Z,7.93
2022-12-19T16:01:01.455Z,8.50
2022-12-19T16:04:04.462Z,9.03
2022-12-19T16:07:13.689Z,9.65
2022-12-19T16:10:17.358Z,9.87
2022-12-19T16:13:23.534Z,11.38
2022-12-19T16:16:26.350Z,10.13
2022-12-19T16:19:31.164Z,10.00
2022-12-19T16:22:33.845Z,10.33
2022-12-19T16:25:39.635Z,8.87
2022-12-19T16:28:44.203Z,12.23
2022-12-19T16:31:47.161Z,12.03
2022-12-19T16:34:49.935Z,13.48
2022-12-19T16:37:52.629Z,13.73
2022-12-19T16:40:57.763Z,14.23
2022-12-19T16:44:01.967Z,13.60
2022-12-19T16:47:04.835Z,12.93
2022-12-19T16:50:15.664Z,14.82
2022-12-19T16:53:18.753Z,14.97
2022-12-19T16:56:25.305Z,14.63
2022-12-19T16:59:32.358Z,15.47
2022-12-19T17:02:43.602Z,15.47
2022-12-19T17:05:46.449Z,15.17
2022-12-19T17:08:49.787Z,15.30
2022-12-19T17:11:55.088Z,20.45
2022-12-19T17:14:59.623Z,15.70
2022-12-19T17:18:04.858Z,17.53
2022-12-19T17:21:07.686Z,29.57
2022-12-19T17:24:13.790Z,27.13
2022-12-19T17:27:17.397Z,25.40
2022-12-19T17:30:22.678Z,24.50
2022-12-19T17:33:37.368Z,25.80
2022-12-19T17:36:40.221Z,21.87
2022-12-19T17:39:43.084Z,17.87
2022-12-19T17:42:45.800Z,17.57
2022-12-19T17:45:50.952Z,17.67
2022-12-19T17:48:54.576Z,16.83
2022-12-19T17:51:57.245Z,16.75
2022-12-19T17:54:59.855Z,16.17
2022-12-19T17:58:02.566Z,17.50
2022-12-19T18:01:06.946Z,16.17
2022-12-19T18:04:13.655Z,16.70
2022-12-19T18:07:17.009Z,15.70
2022-12-19T18:10:22.582Z,15.70
2022-12-19T18:13:26.092Z,17.03
2022-12-19T18:16:31.152Z,17.23
2022-12-19T18:19:35.561Z,15.60
2022-12-19T18:22:38.255Z,15.80
2022-12-19T18:25:41.132Z,17.03
2022-12-19T18:28:44.245Z,15.13
2022-12-19T18:31:51.175Z,15.23
2022-12-19T18:34:54.207Z,18.47
2022-12-19T18:37:59.073Z,15.87
2022-12-19T18:41:01.843Z,17.50
2022-12-19T18:44:04.457Z,16.87
2022-12-19T18:47:17.916Z,15.63
2022-12-19T18:50:22.499Z,15.20
2022-12-19T18:53:34.589Z,12.67
2022-12-19T18:56:38.096Z,13.40
2022-12-19T18:59:40.646Z,17.23
2022-12-19T19:02:47.915Z,15.53
2022-12-19T19:05:50.798Z,17.23
2022-12-19T19:08:53.685Z,14.53
2022-12-19T19:11:56.413Z,16.67
2022-12-19T19:14:59.053Z,16.40
2022-12-19T19:18:04.285Z,16.00
2022-12-19T19:21:07.763Z,15.77
2022-12-19T19:24:13.508Z,15.32
2022-12-19T19:27:16.120Z,14.37
2022-12-19T19:30:19.734Z,14.27
2022-12-19T19:33:26.150Z,16.58
2022-12-19T19:36:30.961Z,13.97
2022-12-19T19:39:34.900Z,13.60
2022-12-19T19:42:37.734Z,12.57
2022-12-19T19:45:43.438Z,12.17
2022-12-19T19:48:47.863Z,11.87
2022-12-19T19:51:52.347Z,10.40
2022-12-19T19:54:57.060Z,10.13
2022-12-19T19:57:59.835Z,11.47
2022-12-19T20:01:08.277Z,10.53
2022-12-19T20:04:12.348Z,10.10
2022-12-19T20:07:15.510Z,11.67
2022-12-19T20:10:18.469Z,11.07
2022-12-19T20:13:21.631Z,10.88
2022-12-19T20:16:24.994Z,10.32
2022-12-19T20:19:29.241Z,11.60
2022-12-19T20:22:32.158Z,10.77
2022-12-19T20:25:39.822Z,10.02
2022-12-19T20:28:48.332Z,10.43
2022-12-19T20:31:52.035Z,9.70
2022-12-19T20:34:56.093Z,11.03
2022-12-19T20:37:58.838Z,10.73
2022-12-19T20:41:01.580Z,9.40
2022-12-19T20:44:04.509Z,8.77
2022-12-19T20:47:07.259Z,9.90
2022-12-19T20:50:13.172Z,9.43
2022-12-19T20:53:15.822Z,9.80
2022-12-19T20:56:19.740Z,10.73
2022-12-19T21:02:25.392Z,8.63
2022-12-19T21:05:29.903Z,9.15
2022-12-19T21:08:32.690Z,9.00
2022-12-19T21:11:36.558Z,9.10
2022-12-19T21:17:41.644Z,8.40
2022-12-19T21:20:46.211Z,10.37
2022-12-19T21:23:49.113Z,10.70
2022-12-19T21:26:57.670Z,10.27
2022-12-19T21:30:01.006Z,10.37
2022-12-19T21:33:03.997Z,11.63
2022-12-19T21:36:09.531Z,10.65
2022-12-19T21:39:12.822Z,9.80
2022-12-19T21:42:15.442Z,13.05
2022-12-19T21:45:18.349Z,12.57
2022-12-19T21:48:20.919Z,11.60
2022-12-19T21:51:26.404Z,12.37
2022-12-19T21:54:29.072Z,11.57
2022-12-19T21:57:31.785Z,11.03
2022-12-19T22:00:34.468Z,10.67
2022-12-19T22:03:37.687Z,12.87
2022-12-19T22:06:41.806Z,12.95
2022-12-19T22:09:44.395Z,12.80
2022-12-19T22:12:46.934Z,11.47
2022-12-19T22:15:49.559Z,11.73
2022-12-19T22:18:52.954Z,10.83
2022-12-19T22:21:57.207Z,10.30
2022-12-19T22:24:59.947Z,10.37
2022-12-19T22:28:02.762Z,10.20
2022-12-19T22:31:14.289Z,9.83
2022-12-19T22:34:18.571Z,10.77
2022-12-19T22:37:25.774Z,10.37
2022-12-19T22:40:28.354Z,10.40
2022-12-19T22:43:31.119Z,10.60
2022-12-19T22:46:35.070Z,10.57
2022-12-19T22:49:37.852Z,10.07
2022-12-19T22:52:41.742Z,10.63
2022-12-19T22:58:48.653Z,9.57
2022-12-19T23:01:51.526Z,10.30
2022-12-19T23:04:54.334Z,13.25
2022-12-19T23:07:58.468Z,11.37
2022-12-19T23:11:01.133Z,11.20
2022-12-19T23:14:04.960Z,12.07
2022-12-19T23:17:07.594Z,11.43
2022-12-19T23:20:10.598Z,17.87
2022-12-19T23:23:14.636Z,14.55
2022-12-19T23:26:19.971Z,13.17
2022-12-19T23:29:22.536Z,11.10
2022-12-19T23:32:25.090Z,11.50
2022-12-19T23:35:28.000Z,11.33
2022-12-19T23:38:32.024Z,11.63
2022-12-19T23:41:34.672Z,12.23
2022-12-19T23:44:37.338Z,13.00
2022-12-19T23:47:40.144Z,13.03
2022-12-19T23:50:42.695Z,12.83
2022-12-19T23:53:47.505Z,12.60
2022-12-19T23:56:50.088Z,11.70
2022-12-19T23:59:52.672Z,12.13
